createdAt,value
2018-01-24T00:00:00.597Z,1028.36
2018-01-24T00:00:59.891Z,1028.28
2018-01-24T00:02:00.361Z,1028.32
2018-01-24T00:02:59.662Z,1028.27
2018-01-24T00:03:59.901Z,1028.26
2018-01-24T00:05:00.315Z,1028.29
2018-01-24T00:05:59.698Z,1028.3
2018-01-24T00:06:59.537Z,1028.28
2018-01-24T00:07:59.772Z,1028.27
2018-01-24T00:09:00.316Z,1028.23
2018-01-24T00:10:01.234Z,1028.23
2018-01-24T00:11:00.896Z,1028.24
2018-01-24T00:11:59.660Z,1028.26
2018-01-24T00:13:00.512Z,1028.21
2018-01-24T00:14:00.349Z,1028.22
2018-01-24T00:15:01.423Z,1028.22
2018-01-24T00:16:01.131Z,1028.22
2018-01-24T00:16:59.630Z,1028.23
2018-01-24T00:18:00.364Z,1028.22
2018-01-24T00:19:01.079Z,1028.24
2018-01-24T00:20:01.741Z,1028.2
2018-01-24T00:20:59.761Z,1028.24
2018-01-24T00:22:00.575Z,1028.23
2018-01-24T00:23:01.108Z,1028.22
2018-01-24T00:23:59.940Z,1028.26
2018-01-24T00:24:59.729Z,1028.27
2018-01-24T00:26:00.276Z,1028.25
2018-01-24T00:27:00.792Z,1028.21
2018-01-24T00:27:59.604Z,1028.17
2018-01-24T00:28:59.639Z,1028.23
2018-01-24T00:30:01.740Z,1028.18
2018-01-24T00:31:00.875Z,1028.17
2018-01-24T00:31:59.536Z,1028.23
2018-01-24T00:32:59.971Z,1028.19
2018-01-24T00:33:59.877Z,1028.17
2018-01-24T00:34:59.629Z,1028.25
2018-01-24T00:36:00.415Z,1028.2
2018-01-24T00:37:01.868Z,1028.24
2018-01-24T00:38:01.901Z,1028.23
2018-01-24T00:39:00.223Z,1028.25
2018-01-24T00:39:59.736Z,1028.19
2018-01-24T00:41:00.368Z,1028.13
2018-01-24T00:41:59.679Z,1028.15
2018-01-24T00:43:00.285Z,1028.14
2018-01-24T00:43:59.614Z,1028.16
2018-01-24T00:44:59.743Z,1028.18
2018-01-24T00:46:00.145Z,1028.17
2018-01-24T00:47:00.614Z,1028.12
2018-01-24T00:47:59.856Z,1028.11
2018-01-24T00:49:00.302Z,1028.05
2018-01-24T00:49:59.706Z,1028.04
2018-01-24T00:50:59.768Z,1028.05
2018-01-24T00:51:59.800Z,1028.03
2018-01-24T00:52:59.772Z,1028.03
2018-01-24T00:54:00.597Z,1028.02
2018-01-24T00:55:00.861Z,1028
2018-01-24T00:56:02.003Z,1027.97
2018-01-24T00:57:00.215Z,1027.97
2018-01-24T00:58:00.539Z,1027.99
2018-01-24T00:58:59.655Z,1027.95
2018-01-24T01:00:00.825Z,1027.92
2018-01-24T01:01:00.315Z,1027.92
2018-01-24T01:01:59.666Z,1027.95
2018-01-24T01:02:59.658Z,1027.96
2018-01-24T01:03:59.764Z,1027.97
2018-01-24T01:05:00.705Z,1027.98
2018-01-24T01:06:00.345Z,1027.94
2018-01-24T01:06:59.668Z,1028
2018-01-24T01:07:59.648Z,1027.98
2018-01-24T01:09:00.230Z,1027.95
2018-01-24T01:10:00.396Z,1027.97
2018-01-24T01:10:59.707Z,1027.96
2018-01-24T01:11:59.835Z,1027.97
2018-01-24T01:13:00.312Z,1027.93
2018-01-24T01:13:59.807Z,1027.98
2018-01-24T01:15:01.188Z,1027.97
2018-01-24T01:15:59.679Z,1027.95
2018-01-24T01:17:01.188Z,1027.96
2018-01-24T01:17:59.803Z,1027.94
2018-01-24T01:19:00.599Z,1027.95
2018-01-24T01:20:00.293Z,1027.92
2018-01-24T01:20:59.716Z,1027.92
2018-01-24T01:22:00.766Z,1027.9
2018-01-24T01:22:59.743Z,1027.93
2018-01-24T01:24:00.375Z,1027.93
2018-01-24T01:25:01.384Z,1027.99
2018-01-24T01:25:59.846Z,1027.98
2018-01-24T01:26:59.723Z,1027.94
2018-01-24T01:28:00.417Z,1027.94
2018-01-24T01:28:59.759Z,1027.94
2018-01-24T01:29:59.725Z,1027.96
2018-01-24T01:30:59.663Z,1027.95
2018-01-24T01:32:01.039Z,1027.95
2018-01-24T01:32:59.734Z,1027.95
2018-01-24T01:34:00.510Z,1027.98
2018-01-24T01:35:00.656Z,1027.99
2018-01-24T01:35:59.664Z,1027.99
2018-01-24T01:37:01.163Z,1027.94
2018-01-24T01:38:02.545Z,1027.95
2018-01-24T01:38:59.982Z,1027.95
2018-01-24T01:39:59.693Z,1027.94
2018-01-24T01:40:59.776Z,1027.93
2018-01-24T01:41:59.924Z,1027.95
2018-01-24T01:43:00.550Z,1027.93
2018-01-24T01:44:01.162Z,1027.92
2018-01-24T01:44:59.870Z,1027.92
2018-01-24T01:46:00.652Z,1027.94
2018-01-24T01:47:00.140Z,1027.98
2018-01-24T01:48:02.110Z,1027.91
2018-01-24T01:49:00.091Z,1027.96
2018-01-24T01:50:00.968Z,1027.95
2018-01-24T01:51:00.562Z,1027.91
2018-01-24T01:52:00.967Z,1027.92
2018-01-24T01:52:59.800Z,1027.92
2018-01-24T01:53:59.880Z,1027.87
2018-01-24T01:54:59.851Z,1027.9
2018-01-24T01:55:59.846Z,1027.86
2018-01-24T01:56:59.891Z,1027.83
2018-01-24T01:57:59.793Z,1027.86
2018-01-24T01:58:59.782Z,1027.87
2018-01-24T01:59:59.860Z,1027.84
2018-01-24T02:01:00.173Z,1027.8
2018-01-24T02:01:59.839Z,1027.82
2018-01-24T02:02:59.863Z,1027.83
2018-01-24T02:03:59.819Z,1027.83
2018-01-24T02:04:59.770Z,1027.83
2018-01-24T02:05:59.901Z,1027.86
2018-01-24T02:06:59.835Z,1027.89
2018-01-24T02:07:59.852Z,1027.88
2018-01-24T02:08:59.835Z,1027.86
2018-01-24T02:09:59.892Z,1027.93
2018-01-24T02:10:59.944Z,1027.94
2018-01-24T02:11:59.888Z,1027.9
2018-01-24T02:12:59.910Z,1027.88
2018-01-24T02:13:59.892Z,1027.92
2018-01-24T02:15:00.550Z,1027.92
2018-01-24T02:16:00.225Z,1027.9
2018-01-24T02:16:59.909Z,1027.86
2018-01-24T02:17:59.932Z,1027.85
2018-01-24T02:18:59.870Z,1027.79
2018-01-24T02:19:59.897Z,1027.79
2018-01-24T02:20:59.886Z,1027.75
2018-01-24T02:21:59.957Z,1027.76
2018-01-24T02:22:59.934Z,1027.78
2018-01-24T02:23:59.998Z,1027.76
2018-01-24T02:24:59.867Z,1027.72
2018-01-24T02:25:59.989Z,1027.68
2018-01-24T02:27:00.025Z,1027.68
2018-01-24T02:27:59.981Z,1027.7
2018-01-24T02:28:59.843Z,1027.68
2018-01-24T02:29:59.893Z,1027.71
2018-01-24T02:30:59.810Z,1027.66
2018-01-24T02:31:59.847Z,1027.68
2018-01-24T02:33:00.642Z,1027.67
2018-01-24T02:33:59.866Z,1027.66
2018-01-24T02:34:59.861Z,1027.63
2018-01-24T02:35:59.929Z,1027.64
2018-01-24T02:36:59.897Z,1027.63
2018-01-24T02:38:00.303Z,1027.64
2018-01-24T02:38:59.991Z,1027.62
2018-01-24T02:39:59.983Z,1027.68
2018-01-24T02:40:59.879Z,1027.62
2018-01-24T02:41:59.935Z,1027.57
2018-01-24T02:42:59.994Z,1027.59
2018-01-24T02:43:59.895Z,1027.58
2018-01-24T02:44:59.915Z,1027.64
2018-01-24T02:45:59.919Z,1027.64
2018-01-24T02:46:59.927Z,1027.65
2018-01-24T02:47:59.934Z,1027.64
2018-01-24T02:48:59.982Z,1027.65
2018-01-24T02:49:59.965Z,1027.61
2018-01-24T02:50:59.886Z,1027.56
2018-01-24T02:51:59.926Z,1027.53
2018-01-24T02:52:59.885Z,1027.5
2018-01-24T02:54:00.010Z,1027.48
2018-01-24T02:54:59.928Z,1027.47
2018-01-24T02:55:59.907Z,1027.44
2018-01-24T02:57:00.055Z,1027.42
2018-01-24T02:57:59.973Z,1027.41
2018-01-24T02:58:59.925Z,1027.36
2018-01-24T03:00:00.044Z,1027.39
2018-01-24T03:00:59.907Z,1027.37
2018-01-24T03:01:59.873Z,1027.33
2018-01-24T03:03:00.008Z,1027.31
2018-01-24T03:03:59.926Z,1027.32
2018-01-24T03:04:59.921Z,1027.33
2018-01-24T03:05:59.921Z,1027.34
2018-01-24T03:07:00.028Z,1027.33
2018-01-24T03:08:00.004Z,1027.39
2018-01-24T03:08:59.908Z,1027.43
2018-01-24T03:09:59.875Z,1027.47
2018-01-24T03:10:59.882Z,1027.45
2018-01-24T03:12:00.078Z,1027.43
2018-01-24T03:13:00.146Z,1027.41
2018-01-24T03:13:59.996Z,1027.48
2018-01-24T03:15:00.023Z,1027.47
2018-01-24T03:16:00.160Z,1027.45
2018-01-24T03:17:00.006Z,1027.47
2018-01-24T03:18:00.028Z,1027.49
2018-01-24T03:19:00.034Z,1027.49
2018-01-24T03:19:59.994Z,1027.52
2018-01-24T03:21:00.019Z,1027.53
2018-01-24T03:21:59.883Z,1027.55
2018-01-24T03:22:59.976Z,1027.56
2018-01-24T03:25:00.686Z,1027.57
2018-01-24T03:25:59.965Z,1027.58
2018-01-24T03:27:00.064Z,1027.57
2018-01-24T03:27:59.966Z,1027.54
2018-01-24T03:29:00.024Z,1027.5
2018-01-24T03:30:00.102Z,1027.48
2018-01-24T03:31:00.074Z,1027.51
2018-01-24T03:32:00.001Z,1027.47
2018-01-24T03:32:59.971Z,1027.49
2018-01-24T03:34:00.100Z,1027.43
2018-01-24T03:35:00.063Z,1027.49
2018-01-24T03:35:59.982Z,1027.46
2018-01-24T03:36:59.986Z,1027.49
2018-01-24T03:37:59.981Z,1027.47
2018-01-24T03:38:59.924Z,1027.52
2018-01-24T03:39:59.878Z,1027.52
2018-01-24T03:40:59.973Z,1027.49
2018-01-24T03:41:59.980Z,1027.51
2018-01-24T03:43:00.074Z,1027.46
2018-01-24T03:44:00.168Z,1027.42
2018-01-24T03:44:59.997Z,1027.46
2018-01-24T03:45:59.922Z,1027.48
2018-01-24T03:47:00.012Z,1027.45
2018-01-24T03:48:00.017Z,1027.48
2018-01-24T03:48:59.985Z,1027.46
2018-01-24T03:50:00.011Z,1027.47
2018-01-24T03:51:00.118Z,1027.53
2018-01-24T03:52:00.104Z,1027.46
2018-01-24T03:53:00.152Z,1027.44
2018-01-24T03:54:00.000Z,1027.5
2018-01-24T03:55:00.071Z,1027.44
2018-01-24T03:56:00.113Z,1027.48
2018-01-24T03:57:00.091Z,1027.47
2018-01-24T03:57:59.991Z,1027.47
2018-01-24T03:59:00.095Z,1027.44
2018-01-24T04:00:00.104Z,1027.44
2018-01-24T04:01:00.103Z,1027.42
2018-01-24T04:02:00.095Z,1027.42
2018-01-24T04:03:00.006Z,1027.35
2018-01-24T04:04:00.073Z,1027.42
2018-01-24T04:05:00.061Z,1027.42
2018-01-24T04:06:00.231Z,1027.39
2018-01-24T04:07:00.227Z,1027.43
2018-01-24T04:08:00.070Z,1027.45
2018-01-24T04:09:00.027Z,1027.45
2018-01-24T04:10:00.127Z,1027.47
2018-01-24T04:10:59.974Z,1027.45
2018-01-24T04:12:00.137Z,1027.48
2018-01-24T04:13:00.111Z,1027.46
2018-01-24T04:14:00.103Z,1027.48
2018-01-24T04:15:00.067Z,1027.46
2018-01-24T04:16:00.128Z,1027.48
2018-01-24T04:17:00.026Z,1027.49
2018-01-24T04:18:00.009Z,1027.49
2018-01-24T04:19:00.022Z,1027.42
2018-01-24T04:20:00.045Z,1027.43
2018-01-24T04:21:00.219Z,1027.44
2018-01-24T04:22:00.146Z,1027.43
2018-01-24T04:23:00.004Z,1027.4
2018-01-24T04:24:00.087Z,1027.4
2018-01-24T04:25:00.116Z,1027.39
2018-01-24T04:26:00.110Z,1027.35
2018-01-24T04:27:00.211Z,1027.37
2018-01-24T04:28:00.009Z,1027.37
2018-01-24T04:29:00.150Z,1027.33
2018-01-24T04:30:00.109Z,1027.32
2018-01-24T04:30:59.983Z,1027.27
2018-01-24T04:32:00.130Z,1027.3
2018-01-24T04:33:00.140Z,1027.31
2018-01-24T04:34:00.082Z,1027.26
2018-01-24T04:35:00.012Z,1027.27
2018-01-24T04:36:00.106Z,1027.24
2018-01-24T04:37:00.145Z,1027.24
2018-01-24T04:38:00.067Z,1027.23
2018-01-24T04:39:00.003Z,1027.25
2018-01-24T04:40:00.017Z,1027.24
2018-01-24T04:40:59.993Z,1027.23
2018-01-24T04:42:00.258Z,1027.27
2018-01-24T04:43:00.098Z,1027.26
2018-01-24T04:44:00.115Z,1027.26
2018-01-24T04:45:00.229Z,1027.27
2018-01-24T04:46:00.114Z,1027.24
2018-01-24T04:47:00.055Z,1027.26
2018-01-24T04:48:00.119Z,1027.24
2018-01-24T04:49:00.164Z,1027.23
2018-01-24T04:50:00.135Z,1027.24
2018-01-24T04:51:00.045Z,1027.22
2018-01-24T04:52:00.117Z,1027.24
2018-01-24T04:53:00.158Z,1027.23
2018-01-24T04:54:00.063Z,1027.19
2018-01-24T04:57:00.191Z,1027.24
2018-01-24T04:58:00.322Z,1027.24
2018-01-24T04:59:00.199Z,1027.26
2018-01-24T05:00:00.265Z,1027.23
2018-01-24T05:01:00.190Z,1027.27
2018-01-24T05:02:00.173Z,1027.26
2018-01-24T05:03:00.385Z,1027.26
2018-01-24T05:04:00.149Z,1027.25
2018-01-24T05:05:00.187Z,1027.29
2018-01-24T05:06:00.223Z,1027.27
2018-01-24T05:07:00.262Z,1027.3
2018-01-24T05:08:00.268Z,1027.33
2018-01-24T05:09:00.271Z,1027.3
2018-01-24T05:10:00.169Z,1027.31
2018-01-24T05:11:00.159Z,1027.3
2018-01-24T05:12:00.337Z,1027.32
2018-01-24T05:13:00.210Z,1027.33
2018-01-24T05:14:00.338Z,1027.3
2018-01-24T05:15:00.303Z,1027.29
2018-01-24T05:16:00.292Z,1027.3
2018-01-24T05:17:00.145Z,1027.31
2018-01-24T05:18:00.169Z,1027.31
2018-01-24T05:19:00.258Z,1027.31
2018-01-24T05:20:00.202Z,1027.32
2018-01-24T05:21:00.183Z,1027.34
2018-01-24T05:22:00.250Z,1027.35
2018-01-24T05:23:00.153Z,1027.34
2018-01-24T05:24:00.230Z,1027.38
2018-01-24T05:25:00.254Z,1027.35
2018-01-24T05:26:00.118Z,1027.38
2018-01-24T05:27:00.210Z,1027.32
2018-01-24T05:28:00.217Z,1027.37
2018-01-24T05:29:00.121Z,1027.35
2018-01-24T05:30:00.128Z,1027.33
2018-01-24T05:31:00.264Z,1027.33
2018-01-24T05:32:00.244Z,1027.35
2018-01-24T05:33:00.122Z,1027.34
2018-01-24T05:34:00.322Z,1027.33
2018-01-24T05:35:00.242Z,1027.33
2018-01-24T05:36:00.999Z,1027.35
2018-01-24T05:37:00.256Z,1027.32
2018-01-24T05:38:00.128Z,1027.28
2018-01-24T05:39:00.031Z,1027.27
2018-01-24T05:40:00.116Z,1027.24
2018-01-24T05:41:00.170Z,1027.24
2018-01-24T05:42:00.200Z,1027.26
2018-01-24T05:43:00.203Z,1027.22
2018-01-24T05:44:00.181Z,1027.23
2018-01-24T05:45:00.231Z,1027.21
2018-01-24T05:46:00.183Z,1027.18
2018-01-24T05:47:00.201Z,1027.18
2018-01-24T05:48:00.211Z,1027.19
2018-01-24T05:49:00.200Z,1027.19
2018-01-24T05:50:00.288Z,1027.24
2018-01-24T05:51:00.192Z,1027.17
2018-01-24T05:52:00.170Z,1027.16
2018-01-24T05:53:00.262Z,1027.16
2018-01-24T05:54:00.286Z,1027.15
2018-01-24T05:55:00.282Z,1027.16
2018-01-24T05:56:00.156Z,1027.13
2018-01-24T05:57:00.217Z,1027.19
2018-01-24T05:58:00.335Z,1027.17
2018-01-24T05:59:00.303Z,1027.17
2018-01-24T06:00:00.502Z,1027.15
2018-01-24T06:01:00.239Z,1027.17
2018-01-24T06:02:00.290Z,1027.2
2018-01-24T06:03:00.198Z,1027.21
2018-01-24T06:04:00.253Z,1027.17
2018-01-24T06:05:00.295Z,1027.2
2018-01-24T06:06:00.202Z,1027.17
2018-01-24T06:07:00.206Z,1027.2
2018-01-24T06:08:00.245Z,1027.14
2018-01-24T06:09:00.266Z,1027.2
2018-01-24T06:10:00.252Z,1027.22
2018-01-24T06:11:00.235Z,1027.21
2018-01-24T06:12:00.972Z,1027.19
2018-01-24T06:13:00.409Z,1027.19
2018-01-24T06:14:00.423Z,1027.22
2018-01-24T06:15:00.334Z,1027.2
2018-01-24T06:16:00.388Z,1027.18
2018-01-24T06:17:00.350Z,1027.18
2018-01-24T06:18:00.293Z,1027.18
2018-01-24T06:19:00.398Z,1027.17
2018-01-24T06:20:00.229Z,1027.18
2018-01-24T06:21:00.272Z,1027.2
2018-01-24T06:22:00.371Z,1027.13
2018-01-24T06:23:00.395Z,1027.2
2018-01-24T06:24:00.306Z,1027.19
2018-01-24T06:25:00.380Z,1027.17
2018-01-24T06:26:00.311Z,1027.23
2018-01-24T06:27:00.395Z,1027.23
2018-01-24T06:28:00.333Z,1027.22
2018-01-24T06:29:00.190Z,1027.21
2018-01-24T06:30:00.345Z,1027.23
2018-01-24T06:31:00.424Z,1027.21
2018-01-24T06:32:00.324Z,1027.26
2018-01-24T06:33:00.375Z,1027.22
2018-01-24T06:34:00.288Z,1027.26
2018-01-24T06:35:00.278Z,1027.27
2018-01-24T06:36:00.570Z,1027.24
2018-01-24T06:37:00.256Z,1027.24
2018-01-24T06:38:00.263Z,1027.22
2018-01-24T06:39:00.294Z,1027.23
2018-01-24T06:40:00.369Z,1027.19
2018-01-24T06:41:00.310Z,1027.19
2018-01-24T06:42:00.543Z,1027.15
2018-01-24T06:42:59.377Z,1027.14
2018-01-24T06:43:59.715Z,1027.15
2018-01-24T06:44:59.417Z,1027.15
2018-01-24T06:45:59.382Z,1027.1
2018-01-24T06:46:59.377Z,1027.14
2018-01-24T06:47:59.371Z,1027.14
2018-01-24T06:48:59.417Z,1027.15
2018-01-24T06:49:59.468Z,1027.14
2018-01-24T06:50:59.382Z,1027.17
2018-01-24T06:51:59.411Z,1027.14
2018-01-24T06:52:59.374Z,1027.16
2018-01-24T06:53:59.315Z,1027.16
2018-01-24T06:54:59.506Z,1027.14
2018-01-24T06:55:59.294Z,1027.14
2018-01-24T06:56:59.325Z,1027.21
2018-01-24T06:57:59.479Z,1027.19
2018-01-24T06:58:59.438Z,1027.19
2018-01-24T07:00:00.439Z,1027.18
2018-01-24T07:00:59.553Z,1027.19
2018-01-24T07:01:59.423Z,1027.14
2018-01-24T07:02:59.450Z,1027.14
2018-01-24T07:03:59.538Z,1027.14
2018-01-24T07:04:59.410Z,1027.14
2018-01-24T07:05:59.459Z,1027.14
2018-01-24T07:06:59.397Z,1027.12
2018-01-24T07:07:59.328Z,1027.09
2018-01-24T07:08:59.927Z,1027.09
2018-01-24T07:09:59.479Z,1027.1
2018-01-24T07:10:59.392Z,1027.08
2018-01-24T07:11:59.457Z,1027.1
2018-01-24T07:12:59.602Z,1027.09
2018-01-24T07:13:59.559Z,1027.13
2018-01-24T07:14:59.481Z,1027.14
2018-01-24T07:15:59.499Z,1027.13
2018-01-24T07:16:59.420Z,1027.14
2018-01-24T07:17:59.439Z,1027.17
2018-01-24T07:18:59.481Z,1027.16
2018-01-24T07:19:59.568Z,1027.14
2018-01-24T07:20:59.818Z,1027.11
2018-01-24T07:21:59.398Z,1027.1
2018-01-24T07:22:59.431Z,1027.14
2018-01-24T07:23:59.424Z,1027.08
2018-01-24T07:24:59.420Z,1027.1
2018-01-24T07:25:59.535Z,1027.06
2018-01-24T07:26:59.884Z,1027.05
2018-01-24T07:27:59.389Z,1027.02
2018-01-24T07:28:59.414Z,1027.01
2018-01-24T07:29:59.429Z,1026.99
2018-01-24T07:30:59.489Z,1026.98
2018-01-24T07:31:59.474Z,1026.98
2018-01-24T07:32:59.527Z,1026.97
2018-01-24T07:33:59.431Z,1026.99
2018-01-24T07:35:00.096Z,1026.95
2018-01-24T07:35:59.564Z,1026.93
2018-01-24T07:36:59.707Z,1026.92
2018-01-24T07:37:59.462Z,1026.91
2018-01-24T07:39:00.218Z,1026.94
2018-01-24T07:39:59.552Z,1026.93
2018-01-24T07:41:00.169Z,1026.93
2018-01-24T07:42:00.032Z,1026.92
2018-01-24T07:42:59.628Z,1026.93
2018-01-24T07:44:00.706Z,1026.97
2018-01-24T07:45:00.301Z,1026.94
2018-01-24T07:46:00.301Z,1026.89
2018-01-24T07:47:04.920Z,1026.98
2018-01-24T07:47:59.448Z,1026.89
2018-01-24T07:48:59.510Z,1026.9
2018-01-24T07:50:01.409Z,1026.91
2018-01-24T07:50:59.382Z,1026.91
2018-01-24T07:52:01.051Z,1026.86
2018-01-24T07:53:01.967Z,1026.9
2018-01-24T07:53:59.647Z,1026.89
2018-01-24T07:55:01.716Z,1026.91
2018-01-24T07:56:00.323Z,1026.91
2018-01-24T07:56:59.528Z,1026.9
2018-01-24T07:58:01.198Z,1026.9
2018-01-24T07:59:00.307Z,1026.87
2018-01-24T08:00:00.132Z,1026.88
2018-01-24T08:00:59.637Z,1026.9
2018-01-24T08:02:00.407Z,1026.88
2018-01-24T08:03:01.082Z,1026.86
2018-01-24T08:04:00.210Z,1026.84
2018-01-24T08:05:00.949Z,1026.86
2018-01-24T08:06:00.768Z,1026.86
2018-01-24T08:06:59.633Z,1026.85
2018-01-24T08:08:00.244Z,1026.82
2018-01-24T08:08:59.489Z,1026.82
2018-01-24T08:09:59.534Z,1026.82
2018-01-24T08:10:59.550Z,1026.84
2018-01-24T08:11:59.533Z,1026.85
2018-01-24T08:12:59.559Z,1026.88
2018-01-24T08:13:59.896Z,1026.87
2018-01-24T08:14:59.493Z,1026.94
2018-01-24T08:15:59.544Z,1026.91
2018-01-24T08:16:59.505Z,1026.93
2018-01-24T08:17:59.649Z,1026.89
2018-01-24T08:18:59.447Z,1026.95
2018-01-24T08:19:59.547Z,1026.93
2018-01-24T08:20:59.675Z,1026.94
2018-01-24T08:21:59.472Z,1026.9
2018-01-24T08:22:59.528Z,1026.96
2018-01-24T08:23:59.564Z,1026.97
2018-01-24T08:24:59.645Z,1026.96
2018-01-24T08:25:59.648Z,1026.98
2018-01-24T08:26:59.756Z,1026.98
2018-01-24T08:27:59.658Z,1027.04
2018-01-24T08:28:59.798Z,1027
2018-01-24T08:29:59.519Z,1027.04
2018-01-24T08:30:59.535Z,1027.06
2018-01-24T08:31:59.656Z,1027.05
2018-01-24T08:32:59.540Z,1027.06
2018-01-24T08:33:59.838Z,1027.06
2018-01-24T08:34:59.626Z,1027.08
2018-01-24T08:35:59.590Z,1027.08
2018-01-24T08:36:59.591Z,1027.07
2018-01-24T08:37:59.744Z,1027.08
2018-01-24T08:38:59.551Z,1027.06
2018-01-24T08:39:59.555Z,1027.11
2018-01-24T08:40:59.582Z,1027.07
2018-01-24T08:41:59.585Z,1027.11
2018-01-24T08:42:59.707Z,1027.08
2018-01-24T08:43:59.544Z,1027.08
2018-01-24T08:44:59.637Z,1027.05
2018-01-24T08:45:59.625Z,1027.05
2018-01-24T08:46:59.572Z,1027.01
2018-01-24T08:47:59.714Z,1027.01
2018-01-24T08:48:59.619Z,1026.98
2018-01-24T08:49:59.704Z,1026.99
2018-01-24T08:50:59.683Z,1026.98
2018-01-24T08:51:59.613Z,1027.02
2018-01-24T08:52:59.581Z,1027.01
2018-01-24T08:53:59.624Z,1026.97
2018-01-24T08:54:59.635Z,1027.04
2018-01-24T08:55:59.911Z,1027.02
2018-01-24T08:56:59.569Z,1027.02
2018-01-24T08:57:59.561Z,1027.01
2018-01-24T08:58:59.655Z,1027.03
2018-01-24T08:59:59.563Z,1027.03
2018-01-24T09:00:59.784Z,1027.07
2018-01-24T09:01:59.762Z,1027.06
2018-01-24T09:02:59.559Z,1027.07
2018-01-24T09:03:59.580Z,1027.04
2018-01-24T09:04:59.588Z,1027
2018-01-24T09:05:59.619Z,1027.02
2018-01-24T09:06:59.654Z,1026.97
2018-01-24T09:07:59.610Z,1027
2018-01-24T09:08:59.626Z,1027.03
2018-01-24T09:09:59.622Z,1026.98
2018-01-24T09:10:59.621Z,1026.95
2018-01-24T09:11:59.668Z,1026.92
2018-01-24T09:13:00.671Z,1026.92
2018-01-24T09:13:59.809Z,1026.93
2018-01-24T09:14:59.897Z,1026.93
2018-01-24T09:15:59.676Z,1026.92
2018-01-24T09:16:59.707Z,1026.88
2018-01-24T09:17:59.638Z,1026.88
2018-01-24T09:18:59.636Z,1026.84
2018-01-24T09:19:59.679Z,1026.87
2018-01-24T09:20:59.671Z,1026.89
2018-01-24T09:21:59.641Z,1026.88
2018-01-24T09:22:59.793Z,1026.84
2018-01-24T09:23:59.691Z,1026.81
2018-01-24T09:24:59.634Z,1026.81
2018-01-24T09:25:59.718Z,1026.82
2018-01-24T09:26:59.634Z,1026.81
2018-01-24T09:27:59.683Z,1026.77
2018-01-24T09:28:59.689Z,1026.83
2018-01-24T09:29:59.700Z,1026.82
2018-01-24T09:30:59.754Z,1026.83
2018-01-24T09:32:00.545Z,1026.8
2018-01-24T09:33:00.790Z,1026.8
2018-01-24T09:34:00.970Z,1026.81
2018-01-24T09:35:00.276Z,1026.8
2018-01-24T09:36:00.513Z,1026.82
2018-01-24T09:37:00.803Z,1026.83
2018-01-24T09:38:01.066Z,1026.79
2018-01-24T09:39:00.181Z,1026.77
2018-01-24T09:40:01.439Z,1026.79
2018-01-24T09:41:01.086Z,1026.79
2018-01-24T09:42:00.239Z,1026.69
2018-01-24T09:43:00.452Z,1026.69
2018-01-24T09:43:59.758Z,1026.72
2018-01-24T09:45:00.825Z,1026.65
2018-01-24T09:46:00.310Z,1026.68
2018-01-24T09:47:00.521Z,1026.62
2018-01-24T09:48:00.880Z,1026.65
2018-01-24T09:48:59.922Z,1026.68
2018-01-24T09:50:00.698Z,1026.66
2018-01-24T09:51:00.934Z,1026.66
2018-01-24T09:52:01.106Z,1026.66
2018-01-24T09:53:00.335Z,1026.64
2018-01-24T09:54:00.431Z,1026.65
2018-01-24T09:55:00.836Z,1026.65
2018-01-24T09:56:00.604Z,1026.63
2018-01-24T09:57:00.895Z,1026.65
2018-01-24T09:58:01.113Z,1026.71
2018-01-24T09:58:59.781Z,1026.59
2018-01-24T10:00:00.598Z,1026.57
2018-01-24T10:01:00.852Z,1026.53
2018-01-24T10:02:01.032Z,1026.55
2018-01-24T10:03:01.132Z,1026.53
2018-01-24T10:04:00.567Z,1026.54
2018-01-24T10:04:59.800Z,1026.51
2018-01-24T10:06:00.506Z,1026.47
2018-01-24T10:07:00.885Z,1026.46
2018-01-24T10:08:00.498Z,1026.42
2018-01-24T10:09:00.860Z,1026.42
2018-01-24T10:09:59.754Z,1026.47
2018-01-24T10:11:00.637Z,1026.44
2018-01-24T10:12:00.732Z,1026.43
2018-01-24T10:13:00.870Z,1026.44
2018-01-24T10:14:01.255Z,1026.43
2018-01-24T10:15:00.587Z,1026.45
2018-01-24T10:16:00.853Z,1026.41
2018-01-24T10:16:59.812Z,1026.35
2018-01-24T10:18:01.811Z,1026.36
2018-01-24T10:19:01.194Z,1026.4
2018-01-24T10:20:00.545Z,1026.41
2018-01-24T10:21:00.607Z,1026.35
2018-01-24T10:22:00.898Z,1026.38
2018-01-24T10:23:01.040Z,1026.29
2018-01-24T10:24:00.423Z,1026.23
2018-01-24T10:25:00.477Z,1026.27
2018-01-24T10:25:59.964Z,1026.17
2018-01-24T10:27:01.122Z,1026.25
2018-01-24T10:28:00.317Z,1026.13
2018-01-24T10:29:00.439Z,1026.1
2018-01-24T10:29:59.796Z,1026.07
2018-01-24T10:30:59.769Z,1026.05
2018-01-24T10:32:00.659Z,1026.1
2018-01-24T10:33:01.040Z,1026.05
2018-01-24T10:34:00.871Z,1026.01
2018-01-24T10:35:01.025Z,1026.02
2018-01-24T10:36:01.718Z,1026.05
2018-01-24T10:37:00.781Z,1026.01
2018-01-24T10:38:00.657Z,1025.99
2018-01-24T10:39:00.871Z,1026.01
2018-01-24T10:40:00.989Z,1025.93
2018-01-24T10:41:00.862Z,1025.96
2018-01-24T10:42:00.776Z,1025.94
2018-01-24T10:43:00.883Z,1025.9
2018-01-24T10:43:59.703Z,1025.88
2018-01-24T10:45:00.909Z,1025.91
2018-01-24T10:46:00.638Z,1025.88
2018-01-24T10:47:00.358Z,1025.92
2018-01-24T10:48:00.879Z,1025.88
2018-01-24T10:49:00.724Z,1025.92
2018-01-24T10:50:00.985Z,1025.89
2018-01-24T10:51:00.815Z,1025.85
2018-01-24T10:51:59.887Z,1025.86
2018-01-24T10:53:00.721Z,1025.85
2018-01-24T10:54:00.500Z,1025.78
2018-01-24T10:55:00.645Z,1025.79
2018-01-24T10:56:00.678Z,1025.77
2018-01-24T10:57:00.828Z,1025.76
2018-01-24T10:58:00.620Z,1025.78
2018-01-24T10:59:00.582Z,1025.75
2018-01-24T11:00:00.610Z,1025.7
2018-01-24T11:01:00.992Z,1025.7
2018-01-24T11:02:00.883Z,1025.71
2018-01-24T11:03:00.917Z,1025.68
2018-01-24T11:03:59.817Z,1025.64
2018-01-24T11:05:00.642Z,1025.63
2018-01-24T11:06:00.590Z,1025.64
2018-01-24T11:07:00.934Z,1025.6
2018-01-24T11:08:00.979Z,1025.6
2018-01-24T11:09:00.704Z,1025.61
2018-01-24T11:10:00.967Z,1025.62
2018-01-24T11:11:01.368Z,1025.59
2018-01-24T11:12:00.756Z,1025.56
2018-01-24T11:12:59.984Z,1025.54
2018-01-24T11:14:00.551Z,1025.57
2018-01-24T11:15:00.745Z,1025.58
2018-01-24T11:16:00.916Z,1025.57
2018-01-24T11:17:00.818Z,1025.57
2018-01-24T11:18:00.897Z,1025.58
2018-01-24T11:19:01.032Z,1025.5
2018-01-24T11:20:00.951Z,1025.53
2018-01-24T11:21:00.757Z,1025.5
2018-01-24T11:22:00.855Z,1025.5
2018-01-24T11:23:01.556Z,1025.49
2018-01-24T11:24:00.807Z,1025.49
2018-01-24T11:25:00.759Z,1025.47
2018-01-24T11:26:00.688Z,1025.45
2018-01-24T11:27:00.858Z,1025.46
2018-01-24T11:28:00.995Z,1025.49
2018-01-24T11:29:00.745Z,1025.43
2018-01-24T11:30:00.308Z,1025.42
2018-01-24T11:30:59.792Z,1025.47
2018-01-24T11:31:59.813Z,1025.39
2018-01-24T11:32:59.716Z,1025.41
2018-01-24T11:33:59.718Z,1025.43
2018-01-24T11:34:59.729Z,1025.37
2018-01-24T11:35:59.917Z,1025.34
2018-01-24T11:36:59.762Z,1025.28
2018-01-24T11:37:59.845Z,1025.29
2018-01-24T11:38:59.704Z,1025.29
2018-01-24T11:39:59.841Z,1025.24
2018-01-24T11:40:59.812Z,1025.26
2018-01-24T11:41:59.744Z,1025.26
2018-01-24T11:42:59.848Z,1025.3
2018-01-24T11:43:59.972Z,1025.22
2018-01-24T11:44:59.785Z,1025.22
2018-01-24T11:45:59.802Z,1025.16
2018-01-24T11:46:59.725Z,1025.18
2018-01-24T11:47:59.690Z,1025.16
2018-01-24T11:48:59.922Z,1025.14
2018-01-24T11:49:59.783Z,1025.14
2018-01-24T11:50:59.970Z,1025.08
2018-01-24T11:51:59.822Z,1025.08
2018-01-24T11:52:59.850Z,1025.1
2018-01-24T11:53:59.853Z,1025.06
2018-01-24T11:55:00.476Z,1025.07
2018-01-24T11:55:59.912Z,1025.01
2018-01-24T11:56:59.797Z,1024.94
2018-01-24T11:57:59.738Z,1024.94
2018-01-24T11:58:59.769Z,1024.93
2018-01-24T11:59:59.758Z,1024.9
2018-01-24T12:00:59.801Z,1024.91
2018-01-24T12:01:59.678Z,1024.88
2018-01-24T12:02:59.797Z,1024.89
2018-01-24T12:03:59.893Z,1024.88
2018-01-24T12:04:59.731Z,1024.86
2018-01-24T12:05:59.753Z,1024.81
2018-01-24T12:06:59.705Z,1024.75
2018-01-24T12:07:59.824Z,1024.76
2018-01-24T12:08:59.854Z,1024.76
2018-01-24T12:09:59.913Z,1024.71